
Distance (Route):
Temperature : -2.5°C
Humidity : 67.4%
Pressure : 0hPa| Receiver | Frames | First received | Last received |
|---|---|---|---|
| LZ4TU-5 | 128 | 2026-08-31 05:26:24 | 2026-08-31 06:58:26 |
| 9A1FER-3 | 85 | 2026-08-31 06:26:09 | 2026-08-31 06:48:49 |
| OM5KV | 50 | 2026-08-31 06:19:19 | 2026-08-31 06:23:23 |
| 9A1FER-10 | 32 | 2026-08-31 06:32:40 | 2026-08-31 06:48:52 |
| OE3JTB-15 | 21 | 2026-08-31 06:14:51 | 2026-08-31 06:49:09 |
| Receiver | Date | Latitude | Longitude | Direction | Speed | Altitude | Climb | Temperature | Humidity | Pressure | Voltage | Killtimer | Uptime | BKT | XDATA |
|---|---|---|---|---|---|---|---|---|---|---|---|---|---|---|---|
| LZ4TU-5 | 2026-08-31 06:58:26 | 44.62241 | 20.80731 | 91° | 20km/h | 4497m | -17.1m/s | -2.5°C | 67.4% | 0hPa | 5.3V | 00:00:00 | 00:00:00 | 00:00:00 | |
| LZ4TU-5 | 2026-08-31 06:58:22 | 44.62239 | 20.80703 | 82° | 20km/h | 4566m | -17.2m/s | -2.8°C | 57.3% | 0hPa | 5.3V | 00:00:00 | 00:00:00 | 00:00:00 | |
| LZ4TU-5 | 2026-08-31 06:58:17 | 44.62233 | 20.80671 | 73° | 16km/h | 4652m | -17.3m/s | -2.4°C | 36.5% | 0hPa | 5.3V | 00:00:00 | 00:00:00 | 00:00:00 | |
| LZ4TU-5 | 2026-08-31 06:51:42 | 44.65016 | 20.75818 | 146° | 69km/h | 13203m | -28.3m/s | -60.0°C | 9.5% | 0hPa | 5.3V | 00:00:00 | 00:00:00 | 00:00:00 | |
| LZ4TU-5 | 2026-08-31 06:51:38 | 44.65073 | 20.75761 | 144° | 66km/h | 13315m | -28.7m/s | -60.8°C | 8.5% | 0hPa | 5.3V | 00:00:00 | 00:00:00 | 00:00:00 | |
| LZ4TU-5 | 2026-08-31 06:50:15 | 44.65444 | 20.74508 | 84° | 40km/h | 15895m | -34.8m/s | -60.4°C | 0.2% | 0hPa | 5.3V | 00:00:00 | 00:00:00 | 00:00:00 | |
| LZ4TU-5 | 2026-08-31 06:50:10 | 44.65450 | 20.74432 | 111° | 44km/h | 16069m | -35.1m/s | -60.5°C | 0.1% | 0hPa | 5.3V | 00:00:00 | 00:00:00 | 00:00:00 | |
| OE3JTB-15 | 2026-08-31 06:49:09 | 44.65482 | 20.73951 | 131° | 5km/h | 18407m | -42.0m/s | -56.1°C | 0% | 0hPa | 5.3V | 00:00:00 | 00:00:00 | 00:00:00 | |
| 9A1FER-10 | 2026-08-31 06:48:52 | 44.65491 | 20.73917 | 80° | 5km/h | 19145m | -44.5m/s | -55.8°C | 0% | 0hPa | 5.3V | 00:00:00 | 00:00:00 | 00:00:00 | |
| 9A1FER-3 | 2026-08-31 06:48:49 | 44.65493 | 20.73911 | 137° | 5km/h | 19280m | -45.1m/s | -55.4°C | 0% | 0hPa | 5.3V | 00:00:00 | 00:00:00 | 00:00:00 | |
| LZ4TU-5 | 2026-08-31 06:48:47 | 44.65498 | 20.73910 | 190° | 5km/h | 19416m | -45.6m/s | -55.3°C | 0.0% | 0hPa | 5.3V | 00:00:00 | 00:00:00 | 00:00:00 | |
| LZ4TU-5 | 2026-08-31 06:48:41 | 44.65498 | 20.73912 | 356° | 5km/h | 19646m | -46.6m/s | -56.1°C | 0.0% | 0hPa | 5.3V | 00:00:00 | 00:00:00 | 00:00:00 | |
| OE3JTB-15 | 2026-08-31 06:48:37 | 44.65490 | 20.73909 | 19° | 7km/h | 19833m | -47.7m/s | -55.2°C | 0% | 0hPa | 5.3V | 00:00:00 | 00:00:00 | 00:00:00 | |
| 9A1FER-3 | 2026-08-31 06:48:34 | 44.65485 | 20.73910 | 321° | 5km/h | 19978m | -48.3m/s | -54.7°C | 0% | 0hPa | 5.3V | 00:00:00 | 00:00:00 | 00:00:00 | |
| 9A1FER-10 | 2026-08-31 06:48:18 | 44.65463 | 20.73932 | 252° | 7km/h | 20776m | -51.4m/s | -54.5°C | 0% | 0hPa | 5.3V | 00:00:00 | 00:00:00 | 00:00:00 | |
| 9A1FER-3 | 2026-08-31 06:48:16 | 44.65464 | 20.73936 | 254° | 9km/h | 20879m | -51.7m/s | -54.0°C | 0% | 0hPa | 5.3V | 00:00:00 | 00:00:00 | 00:00:00 | |
| OE3JTB-15 | 2026-08-31 06:48:08 | 44.65468 | 20.73959 | 268° | 11km/h | 21299m | -53.3m/s | -52.9°C | 0% | 0hPa | 5.3V | 00:00:00 | 00:00:00 | 00:00:00 | |
| 9A1FER-10 | 2026-08-31 06:48:03 | 44.65464 | 20.73980 | 308° | 11km/h | 21568m | -54.2m/s | -53.2°C | 0% | 0hPa | 5.3V | 00:00:00 | 00:00:00 | 00:00:00 | |
| 9A1FER-3 | 2026-08-31 06:48:01 | 44.65461 | 20.73984 | 326° | 11km/h | 21677m | -54.4m/s | -53.3°C | 0% | 0hPa | 5.3V | 00:00:00 | 00:00:00 | 00:00:00 | |
| 9A1FER-3 | 2026-08-31 06:47:43 | 44.65436 | 20.74036 | 292° | 9km/h | 22696m | -58.8m/s | -51.5°C | 0% | 0hPa | 5.3V | 00:00:00 | 00:00:00 | 00:00:00 | |
| OE3JTB-15 | 2026-08-31 06:47:39 | 44.65434 | 20.74044 | 275° | 11km/h | 22933m | -59.5m/s | -51.4°C | 0% | 0hPa | 5.3V | 00:00:00 | 00:00:00 | 00:00:00 | |
| 9A1FER-10 | 2026-08-31 06:47:23 | 44.65421 | 20.74099 | 280° | 13km/h | 23923m | -64.6m/s | -50.6°C | 0% | 0hPa | 5.3V | 00:00:00 | 00:00:00 | 00:00:00 | |
| 9A1FER-3 | 2026-08-31 06:47:21 | 44.65420 | 20.74107 | 284° | 15km/h | 24052m | -65.2m/s | -50.6°C | 0% | 0hPa | 5.3V | 00:00:00 | 00:00:00 | 00:00:00 | |
| LZ4TU-5 | 2026-08-31 06:47:19 | 44.65417 | 20.74117 | 295° | 15km/h | 24183m | -65.9m/s | -51.1°C | 0.7% | 0hPa | 5.3V | 00:00:00 | 00:00:00 | 00:00:00 | |
| LZ4TU-5 | 2026-08-31 06:47:14 | 44.65405 | 20.74140 | 316° | 13km/h | 24516m | -66.9m/s | -50.1°C | 0.6% | 0hPa | 5.3V | 00:00:00 | 00:00:00 | 00:00:00 | |
| 9A1FER-3 | 2026-08-31 06:47:06 | 44.65397 | 20.74170 | 295° | 16km/h | 25061m | -69.7m/s | -49.3°C | 0% | 0hPa | 5.3V | 00:00:00 | 00:00:00 | 00:00:00 | |
| 9A1FER-3 | 2026-08-31 06:46:48 | 44.65356 | 20.74199 | 354° | 7km/h | 26392m | -79.7m/s | -46.4°C | 0% | 0hPa | 5.3V | 00:00:00 | 00:00:00 | 00:00:00 | |
| 9A1FER-10 | 2026-08-31 06:46:42 | 44.65345 | 20.74201 | 19° | 9km/h | 26896m | -87.6m/s | -45.1°C | 0% | 0hPa | 5.3V | 00:00:00 | 00:00:00 | 00:00:00 | |
| 9A1FER-3 | 2026-08-31 06:46:31 | 44.65323 | 20.74188 | 46° | 13km/h | 27890m | -93.8m/s | -42.9°C | 0% | 0hPa | 5.3V | 00:00:00 | 00:00:00 | 00:00:00 | |
| 9A1FER-10 | 2026-08-31 06:46:27 | 44.65316 | 20.74175 | 69° | 13km/h | 28270m | -95.8m/s | -42.6°C | 0% | 0hPa | 5.3V | 00:00:00 | 00:00:00 | 00:00:00 | |
| 9A1FER-3 | 2026-08-31 06:46:16 | 44.65313 | 20.74132 | 75° | 18km/h | 29362m | -102.0m/s | -40.1°C | 0% | 0hPa | 5.3V | 00:00:00 | 00:00:00 | 00:00:00 | |
| 9A1FER-10 | 2026-08-31 06:46:12 | 44.65308 | 20.74110 | 91° | 18km/h | 29773m | -102.1m/s | -38.9°C | 0% | 0hPa | 5.3V | 00:00:00 | 00:00:00 | 00:00:00 | |
| 9A1FER-3 | 2026-08-31 06:46:01 | 44.65323 | 20.74038 | 137° | 16km/h | 30872m | -91.8m/s | -38.4°C | 0% | 0hPa | 5.3V | 00:00:00 | 00:00:00 | 00:00:00 | |
| LZ4TU-5 | 2026-08-31 06:45:59 | 44.65329 | 20.74032 | 152° | 16km/h | 31054m | -87.9m/s | -37.8°C | 1.7% | 0hPa | 5.3V | 00:00:00 | 00:00:00 | 00:00:00 | |
| 9A1FER-10 | 2026-08-31 06:45:57 | 44.65336 | 20.74028 | 158° | 16km/h | 31226m | -81.2m/s | -38.0°C | 0% | 0hPa | 5.3V | 00:00:00 | 00:00:00 | 00:00:00 | |
| LZ4TU-5 | 2026-08-31 06:45:54 | 44.65346 | 20.74021 | 153° | 13km/h | 31463m | -70.9m/s | -38.6°C | 2.0% | 0hPa | 5.3V | 00:00:00 | 00:00:00 | 00:00:00 | |
| 9A1FER-3 | 2026-08-31 06:45:46 | 44.65392 | 20.73992 | 146° | 29km/h | 31853m | -15.1m/s | -37.9°C | 0% | 0hPa | 5.3V | 00:00:00 | 00:00:00 | 00:00:00 | |
| 9A1FER-10 | 2026-08-31 06:45:42 | 44.65419 | 20.73973 | 181° | 29km/h | 31830m | 7.4m/s | -38.4°C | 0% | 0hPa | 5.3V | 00:00:00 | 00:00:00 | 00:00:00 | |
| 9A1FER-3 | 2026-08-31 06:45:28 | 44.65423 | 20.73890 | 215° | 18km/h | 31733m | 6.3m/s | -38.7°C | 0% | 0hPa | 5.4V | 00:00:00 | 00:00:00 | 00:00:00 | |
| 9A1FER-10 | 2026-08-31 06:45:26 | 44.65423 | 20.73886 | 69° | 24km/h | 31719m | 8.2m/s | -38.7°C | 0% | 0hPa | 5.4V | 00:00:00 | 00:00:00 | 00:00:00 | |
| 9A1FER-3 | 2026-08-31 06:45:12 | 44.65392 | 20.73831 | 64° | 27km/h | 31617m | 6.3m/s | -39.4°C | 0% | 0hPa | 5.4V | 00:00:00 | 00:00:00 | 00:00:00 | |
| 9A1FER-3 | 2026-08-31 06:44:57 | 44.65351 | 20.73813 | 327° | 20km/h | 31517m | 7.9m/s | -39.9°C | 0% | 0hPa | 5.4V | 00:00:00 | 00:00:00 | 00:00:00 | |
| 9A1FER-10 | 2026-08-31 06:44:46 | 44.65318 | 20.73813 | 28° | 15km/h | 31442m | 6.2m/s | -39.4°C | 0% | 0hPa | 5.4V | 00:00:00 | 00:00:00 | 00:00:00 | |
| 9A1FER-3 | 2026-08-31 06:44:42 | 44.65305 | 20.73834 | 298° | 15km/h | 31414m | 5.0m/s | -39.2°C | 0% | 0hPa | 5.4V | 00:00:00 | 00:00:00 | 00:00:00 | |
| LZ4TU-5 | 2026-08-31 06:44:33 | 44.65301 | 20.73834 | 273° | 20km/h | 31346m | 7.9m/s | -39.5°C | 2.0% | 0hPa | 5.4V | 00:00:00 | 00:00:00 | 00:00:00 | |
| 9A1FER-10 | 2026-08-31 06:44:31 | 44.65300 | 20.73849 | 284° | 22km/h | 31334m | 5.9m/s | -39.5°C | 0% | 0hPa | 5.4V | 00:00:00 | 00:00:00 | 00:00:00 | |
| LZ4TU-5 | 2026-08-31 06:44:28 | 44.65295 | 20.73857 | 93° | 9km/h | 31316m | 5.3m/s | -39.5°C | 2.0% | 0hPa | 5.4V | 00:00:00 | 00:00:00 | 00:00:00 | |
| 9A1FER-3 | 2026-08-31 06:44:27 | 44.65296 | 20.73853 | 131° | 24km/h | 31309m | 7.7m/s | -39.5°C | 0% | 0hPa | 5.4V | 00:00:00 | 00:00:00 | 00:00:00 | |
| 9A1FER-3 | 2026-08-31 06:44:12 | 44.65353 | 20.73890 | 189° | 16km/h | 31203m | 6.7m/s | -39.5°C | 0% | 0hPa | 5.4V | 00:00:00 | 00:00:00 | 00:00:00 | |
| 9A1FER-10 | 2026-08-31 06:43:57 | 44.65389 | 20.73892 | 104° | 16km/h | 31101m | 5.5m/s | -39.9°C | 0% | 0hPa | 5.4V | 00:00:00 | 00:00:00 | 00:00:00 | |
| 9A1FER-3 | 2026-08-31 06:43:42 | 44.65412 | 20.73853 | 120° | 16km/h | 30994m | 6.5m/s | -40.7°C | 0% | 0hPa | 5.4V | 00:00:00 | 00:00:00 | 00:00:00 | |
| 9A1FER-3 | 2026-08-31 06:43:27 | 44.65414 | 20.73797 | 127° | 15km/h | 30889m | 8.7m/s | -41.2°C | 0% | 0hPa | 5.4V | 00:00:00 | 00:00:00 | 00:00:00 | |
| 9A1FER-10 | 2026-08-31 06:43:25 | 44.65422 | 20.73786 | 130° | 16km/h | 30874m | 6.9m/s | -41.2°C | 0% | 0hPa | 5.4V | 00:00:00 | 00:00:00 | 00:00:00 | |
| 9A1FER-3 | 2026-08-31 06:43:12 | 44.65417 | 20.73733 | 106° | 18km/h | 30782m | 5.2m/s | -40.9°C | 0% | 0hPa | 5.4V | 00:00:00 | 00:00:00 | 00:00:00 | |
| 9A1FER-10 | 2026-08-31 06:43:10 | 44.65413 | 20.73730 | 350° | 20km/h | 30763m | 9.6m/s | -40.9°C | 0% | 0hPa | 5.4V | 00:00:00 | 00:00:00 | 00:00:00 | |
| 9A1FER-3 | 2026-08-31 06:42:56 | 44.65361 | 20.73723 | 344° | 24km/h | 30664m | 6.1m/s | -40.7°C | 0% | 0hPa | 5.4V | 00:00:00 | 00:00:00 | 00:00:00 | |
| 9A1FER-10 | 2026-08-31 06:42:55 | 44.65354 | 20.73725 | 360° | 26km/h | 30656m | 8.3m/s | -40.7°C | 0% | 0hPa | 5.4V | 00:00:00 | 00:00:00 | 00:00:00 | |
| LZ4TU-5 | 2026-08-31 06:42:47 | 44.65323 | 20.73710 | 332° | 22km/h | 30596m | 7.5m/s | -40.7°C | 1.9% | 0hPa | 5.4V | 00:00:00 | 00:00:00 | 00:00:00 | |
| LZ4TU-5 | 2026-08-31 06:42:42 | 44.65287 | 20.73721 | 353° | 29km/h | 30560m | 6.0m/s | -40.7°C | 1.9% | 0hPa | 5.4V | 00:00:00 | 00:00:00 | 00:00:00 | |
| 9A1FER-3 | 2026-08-31 06:42:41 | 44.65280 | 20.73721 | 6° | 37km/h | 30553m | 7.0m/s | -40.7°C | 0% | 0hPa | 5.4V | 00:00:00 | 00:00:00 | 00:00:00 | |
| 9A1FER-10 | 2026-08-31 06:42:37 | 44.65255 | 20.73706 | 1° | 37km/h | 30529m | 4.1m/s | -40.9°C | 0% | 0hPa | 5.4V | 00:00:00 | 00:00:00 | 00:00:00 | |
| 9A1FER-3 | 2026-08-31 06:42:26 | 44.65155 | 20.73728 | 32° | 35km/h | 30446m | 6.0m/s | -41.3°C | 0% | 0hPa | 5.4V | 00:00:00 | 00:00:00 | 00:00:00 | |
| 9A1FER-10 | 2026-08-31 06:42:22 | 44.65130 | 20.73756 | 306° | 55km/h | 30415m | 8.7m/s | -41.5°C | 0% | 0hPa | 5.4V | 00:00:00 | 00:00:00 | 00:00:00 | |
| 9A1FER-3 | 2026-08-31 06:42:10 | 44.65061 | 20.73816 | 327° | 22km/h | 30325m | 8.5m/s | -41.7°C | 0% | 0hPa | 5.4V | 00:00:00 | 00:00:00 | 00:00:00 | |
| 9A1FER-10 | 2026-08-31 06:42:07 | 44.65038 | 20.73845 | 313° | 18km/h | 30305m | 5.2m/s | -41.5°C | 0% | 0hPa | 5.4V | 00:00:00 | 00:00:00 | 00:00:00 | |
| 9A1FER-3 | 2026-08-31 06:41:54 | 44.65022 | 20.73882 | 320° | 16km/h | 30209m | 9.0m/s | -40.9°C | 0% | 0hPa | 5.4V | 00:00:00 | 00:00:00 | 00:00:00 | |
| 9A1FER-10 | 2026-08-31 06:41:52 | 44.65025 | 20.73886 | 222° | 18km/h | 30192m | 7.2m/s | -40.8°C | 0% | 0hPa | 5.4V | 00:00:00 | 00:00:00 | 00:00:00 | |
| 9A1FER-3 | 2026-08-31 06:41:39 | 44.65032 | 20.73940 | 161° | 18km/h | 30104m | 4.1m/s | -41.1°C | 0% | 0hPa | 5.4V | 00:00:00 | 00:00:00 | 00:00:00 | |
| 9A1FER-10 | 2026-08-31 06:41:36 | 44.65036 | 20.73941 | 312° | 18km/h | 30080m | 6.8m/s | -41.1°C | 0% | 0hPa | 5.4V | 00:00:00 | 00:00:00 | 00:00:00 | |
| 9A1FER-3 | 2026-08-31 06:41:24 | 44.65062 | 20.73958 | 273° | 16km/h | 29998m | 6.4m/s | -41.5°C | 0% | 0hPa | 5.4V | 00:00:00 | 00:00:00 | 00:00:00 | |
| 9A1FER-10 | 2026-08-31 06:41:21 | 44.65066 | 20.73966 | 168° | 11km/h | 29979m | 6.6m/s | -41.7°C | 0% | 0hPa | 5.4V | 00:00:00 | 00:00:00 | 00:00:00 | |
| LZ4TU-5 | 2026-08-31 06:41:15 | 44.65097 | 20.73967 | 182° | 18km/h | 29937m | 5.7m/s | -42.4°C | 2.0% | 0hPa | 5.4V | 00:00:00 | 00:00:00 | 00:00:00 | |
| LZ4TU-5 | 2026-08-31 06:41:10 | 44.65094 | 20.73960 | 67° | 18km/h | 29907m | 3.8m/s | -42.4°C | 2.0% | 0hPa | 5.4V | 00:00:00 | 00:00:00 | 00:00:00 | |
| 9A1FER-3 | 2026-08-31 06:41:09 | 44.65093 | 20.73954 | 105° | 24km/h | 29901m | 5.5m/s | -42.0°C | 0% | 0hPa | 5.4V | 00:00:00 | 00:00:00 | 00:00:00 | |
| 9A1FER-10 | 2026-08-31 06:41:01 | 44.65127 | 20.73934 | 71° | 24km/h | 29844m | 8.3m/s | -41.8°C | 0% | 0hPa | 5.4V | 00:00:00 | 00:00:00 | 00:00:00 | |
| 9A1FER-3 | 2026-08-31 06:40:53 | 44.65147 | 20.73903 | 175° | 22km/h | 29791m | 5.2m/s | -41.6°C | 0% | 0hPa | 5.4V | 00:00:00 | 00:00:00 | 00:00:00 | |
| 9A1FER-3 | 2026-08-31 06:40:35 | 44.65153 | 20.73769 | 75° | 24km/h | 29669m | 4.8m/s | -42.5°C | 0% | 0hPa | 5.4V | 00:00:00 | 00:00:00 | 00:00:00 | |
| 9A1FER-3 | 2026-08-31 06:40:20 | 44.65138 | 20.73649 | 62° | 16km/h | 29567m | 8.0m/s | -42.6°C | 0% | 0hPa | 5.4V | 00:00:00 | 00:00:00 | 00:00:00 | |
| 9A1FER-10 | 2026-08-31 06:40:04 | 44.65112 | 20.73554 | 99° | 13km/h | 29457m | 9.4m/s | -42.6°C | 0% | 0hPa | 5.4V | 00:00:00 | 00:00:00 | 00:00:00 | |
| 9A1FER-3 | 2026-08-31 06:39:49 | 44.65128 | 20.73491 | 159° | 15km/h | 29356m | 7.5m/s | -43.0°C | 0% | 0hPa | 5.4V | 00:00:00 | 00:00:00 | 00:00:00 | |
| 9A1FER-10 | 2026-08-31 06:39:44 | 44.65140 | 20.73484 | 81° | 11km/h | 29321m | 6.6m/s | -42.9°C | 0% | 0hPa | 5.4V | 00:00:00 | 00:00:00 | 00:00:00 | |
| LZ4TU-5 | 2026-08-31 06:39:43 | 44.65139 | 20.73481 | 69° | 9km/h | 29315m | 5.6m/s | -43.3°C | 1.9% | 0hPa | 5.4V | 00:00:00 | 00:00:00 | 00:00:00 | |
| LZ4TU-5 | 2026-08-31 06:39:39 | 44.65134 | 20.73466 | 103° | 16km/h | 29292m | 5.2m/s | -43.3°C | 1.9% | 0hPa | 5.4V | 00:00:00 | 00:00:00 | 00:00:00 | |
| 9A1FER-3 | 2026-08-31 06:39:34 | 44.65157 | 20.73457 | 163° | 15km/h | 29255m | 7.8m/s | -42.8°C | 0% | 0hPa | 5.4V | 00:00:00 | 00:00:00 | 00:00:00 | |
| 9A1FER-3 | 2026-08-31 06:39:19 | 44.65151 | 20.73430 | 50° | 18km/h | 29151m | 7.3m/s | -43.1°C | 0% | 0hPa | 5.4V | 00:00:00 | 00:00:00 | 00:00:00 | |
| 9A1FER-10 | 2026-08-31 06:39:16 | 44.65143 | 20.73408 | 90° | 13km/h | 29131m | 5.7m/s | -43.4°C | 0% | 0hPa | 5.4V | 00:00:00 | 00:00:00 | 00:00:00 | |
| 9A1FER-3 | 2026-08-31 06:39:04 | 44.65120 | 20.73354 | 99° | 15km/h | 29052m | 5.7m/s | -43.5°C | 0% | 0hPa | 5.4V | 00:00:00 | 00:00:00 | 00:00:00 | |
| 9A1FER-3 | 2026-08-31 06:38:49 | 44.65132 | 20.73304 | 154° | 11km/h | 28947m | 9.3m/s | -43.4°C | 0% | 0hPa | 5.4V | 00:00:00 | 00:00:00 | 00:00:00 | |
| 9A1FER-10 | 2026-08-31 06:38:36 | 44.65133 | 20.73280 | 11° | 13km/h | 28861m | 6.5m/s | -43.5°C | 0% | 0hPa | 5.4V | 00:00:00 | 00:00:00 | 00:00:00 | |
| 9A1FER-3 | 2026-08-31 06:38:33 | 44.65132 | 20.73285 | 221° | 16km/h | 28840m | 5.3m/s | -43.6°C | 0% | 0hPa | 5.4V | 00:00:00 | 00:00:00 | 00:00:00 | |
| LZ4TU-5 | 2026-08-31 06:38:18 | 44.65165 | 20.73248 | 153° | 27km/h | 28732m | 7.5m/s | -44.8°C | 1.9% | 0hPa | 5.4V | 00:00:00 | 00:00:00 | 00:00:00 | |
| 9A1FER-3 | 2026-08-31 06:38:16 | 44.65172 | 20.73238 | 113° | 22km/h | 28718m | 5.9m/s | -44.4°C | 0% | 0hPa | 5.4V | 00:00:00 | 00:00:00 | 00:00:00 | |
| LZ4TU-5 | 2026-08-31 06:38:14 | 44.65175 | 20.73230 | 126° | 13km/h | 28701m | 9.3m/s | -44.8°C | 1.9% | 0hPa | 5.4V | 00:00:00 | 00:00:00 | 00:00:00 | |
| 9A1FER-3 | 2026-08-31 06:37:59 | 44.65214 | 20.73135 | 101° | 18km/h | 28600m | 6.1m/s | -44.5°C | 0% | 0hPa | 5.4V | 00:00:00 | 00:00:00 | 00:00:00 | |
| 9A1FER-3 | 2026-08-31 06:37:41 | 44.65225 | 20.73034 | 39° | 22km/h | 28477m | 5.4m/s | -44.5°C | 0% | 0hPa | 5.4V | 00:00:00 | 00:00:00 | 00:00:00 | |
| 9A1FER-3 | 2026-08-31 06:37:26 | 44.65171 | 20.72942 | 27° | 24km/h | 28370m | 6.5m/s | -44.7°C | 0% | 0hPa | 5.4V | 00:00:00 | 00:00:00 | 00:00:00 | |
| 9A1FER-3 | 2026-08-31 06:37:08 | 44.65088 | 20.72904 | 8° | 15km/h | 28249m | 4.9m/s | -44.8°C | 0% | 0hPa | 5.4V | 00:00:00 | 00:00:00 | 00:00:00 | |
| LZ4TU-5 | 2026-08-31 06:36:57 | 44.65065 | 20.72882 | 111° | 27km/h | 28175m | 8.4m/s | -45.6°C | 1.8% | 0hPa | 5.4V | 00:00:00 | 00:00:00 | 00:00:00 | |
| 9A1FER-3 | 2026-08-31 06:36:53 | 44.65060 | 20.72847 | 36° | 20km/h | 28150m | 6.0m/s | -45.0°C | 0% | 0hPa | 5.4V | 00:00:00 | 00:00:00 | 00:00:00 | |
| LZ4TU-5 | 2026-08-31 06:36:52 | 44.65054 | 20.72841 | 32° | 33km/h | 28141m | 8.8m/s | -45.5°C | 1.8% | 0hPa | 5.4V | 00:00:00 | 00:00:00 | 00:00:00 | |
| 9A1FER-3 | 2026-08-31 06:36:38 | 44.64995 | 20.72797 | 351° | 22km/h | 28050m | 6.8m/s | -44.8°C | 0% | 0hPa | 5.4V | 00:00:00 | 00:00:00 | 00:00:00 | |
| 9A1FER-3 | 2026-08-31 06:36:21 | 44.64902 | 20.72823 | 335° | 24km/h | 27937m | 5.5m/s | -45.6°C | 0% | 0hPa | 5.4V | 00:00:00 | 00:00:00 | 00:00:00 | |
| 9A1FER-3 | 2026-08-31 06:36:03 | 44.64812 | 20.72887 | 285° | 16km/h | 27813m | 8.4m/s | -46.1°C | 0% | 0hPa | 5.4V | 00:00:00 | 00:00:00 | 00:00:00 | |
| 9A1FER-3 | 2026-08-31 06:35:48 | 44.64812 | 20.72944 | 197° | 11km/h | 27715m | 5.3m/s | -45.9°C | 0% | 0hPa | 5.4V | 00:00:00 | 00:00:00 | 00:00:00 | |
| 9A1FER-3 | 2026-08-31 06:35:33 | 44.64839 | 20.72961 | 289° | 15km/h | 27613m | 5.2m/s | -45.9°C | 0% | 0hPa | 5.4V | 00:00:00 | 00:00:00 | 00:00:00 | |
| LZ4TU-5 | 2026-08-31 06:35:29 | 44.64843 | 20.72969 | 194° | 7km/h | 27588m | 5.5m/s | -46.5°C | 1.8% | 0hPa | 5.4V | 00:00:00 | 00:00:00 | 00:00:00 | |
| LZ4TU-5 | 2026-08-31 06:35:25 | 44.64852 | 20.72949 | 130° | 26km/h | 27558m | 8.9m/s | -46.5°C | 1.7% | 0hPa | 5.4V | 00:00:00 | 00:00:00 | 00:00:00 | |
| 9A1FER-3 | 2026-08-31 06:35:18 | 44.64860 | 20.72934 | 345° | 5km/h | 27513m | 6.4m/s | -45.8°C | 0% | 0hPa | 5.4V | 00:00:00 | 00:00:00 | 00:00:00 | |
| 9A1FER-3 | 2026-08-31 06:35:02 | 44.64868 | 20.72910 | 213° | 13km/h | 27409m | 3.7m/s | -46.1°C | 0% | 0hPa | 5.4V | 00:00:00 | 00:00:00 | 00:00:00 | |
| 9A1FER-3 | 2026-08-31 06:34:47 | 44.64851 | 20.72875 | 312° | 11km/h | 27304m | 7.7m/s | -46.3°C | 0% | 0hPa | 5.4V | 00:00:00 | 00:00:00 | 00:00:00 | |
| 9A1FER-3 | 2026-08-31 06:34:32 | 44.64821 | 20.72856 | 42° | 15km/h | 27200m | 5.5m/s | -46.7°C | 0% | 0hPa | 5.4V | 00:00:00 | 00:00:00 | 00:00:00 | |
| 9A1FER-3 | 2026-08-31 06:34:17 | 44.64777 | 20.72858 | 292° | 20km/h | 27097m | 8.4m/s | -47.0°C | 0% | 0hPa | 5.4V | 00:00:00 | 00:00:00 | 00:00:00 | |
| LZ4TU-5 | 2026-08-31 06:34:03 | 44.64723 | 20.72901 | 313° | 16km/h | 27000m | 7.1m/s | -47.6°C | 1.6% | 0hPa | 5.4V | 00:00:00 | 00:00:00 | 00:00:00 | |
| 9A1FER-3 | 2026-08-31 06:34:01 | 44.64716 | 20.72906 | 342° | 24km/h | 26986m | 7.8m/s | -47.0°C | 0% | 0hPa | 5.4V | 00:00:00 | 00:00:00 | 00:00:00 | |
| LZ4TU-5 | 2026-08-31 06:33:58 | 44.64697 | 20.72918 | 331° | 29km/h | 26966m | 5.9m/s | -47.6°C | 1.6% | 0hPa | 5.5V | 00:00:00 | 00:00:00 | 00:00:00 | |
| 9A1FER-10 | 2026-08-31 06:33:50 | 44.64656 | 20.72941 | 329° | 33km/h | 26909m | 8.5m/s | -47.3°C | 0% | 0hPa | 5.5V | 00:00:00 | 00:00:00 | 00:00:00 | |
| 9A1FER-3 | 2026-08-31 06:33:46 | 44.64629 | 20.72976 | 329° | 20km/h | 26882m | 7.1m/s | -47.4°C | 0% | 0hPa | 5.5V | 00:00:00 | 00:00:00 | 00:00:00 | |
| 9A1FER-10 | 2026-08-31 06:33:33 | 44.64579 | 20.73034 | 320° | 20km/h | 26792m | 4.6m/s | -47.9°C | 0% | 0hPa | 5.5V | 00:00:00 | 00:00:00 | 00:00:00 | |
| 9A1FER-3 | 2026-08-31 06:33:31 | 44.64571 | 20.73047 | 303° | 16km/h | 26778m | 8.7m/s | -48.0°C | 0% | 0hPa | 5.5V | 00:00:00 | 00:00:00 | 00:00:00 | |
| 9A1FER-3 | 2026-08-31 06:33:16 | 44.64558 | 20.73131 | 261° | 11km/h | 26672m | 7.1m/s | -48.0°C | 0% | 0hPa | 5.5V | 00:00:00 | 00:00:00 | 00:00:00 | |
| 9A1FER-10 | 2026-08-31 06:33:13 | 44.64552 | 20.73147 | 321° | 13km/h | 26650m | 7.3m/s | -48.0°C | 0% | 0hPa | 5.5V | 00:00:00 | 00:00:00 | 00:00:00 | |
| 9A1FER-3 | 2026-08-31 06:33:01 | 44.64546 | 20.73158 | 240° | 9km/h | 26575m | 4.7m/s | -48.2°C | 0% | 0hPa | 5.5V | 00:00:00 | 00:00:00 | 00:00:00 | |
| 9A1FER-10 | 2026-08-31 06:32:56 | 44.64538 | 20.73170 | 46° | 11km/h | 26534m | 10.1m/s | -47.9°C | 0% | 0hPa | 5.5V | 00:00:00 | 00:00:00 | 00:00:00 | |
| 9A1FER-3 | 2026-08-31 06:32:45 | 44.64527 | 20.73145 | 60° | 15km/h | 26465m | 8.6m/s | -47.6°C | 0% | 0hPa | 5.5V | 00:00:00 | 00:00:00 | 00:00:00 | |
| 9A1FER-10 | 2026-08-31 06:32:40 | 44.64509 | 20.73123 | 77° | 18km/h | 26431m | 5.5m/s | -47.5°C | 0% | 0hPa | 5.5V | 00:00:00 | 00:00:00 | 00:00:00 | |
| 9A1FER-3 | 2026-08-31 06:32:30 | 44.64483 | 20.73089 | 15° | 13km/h | 26364m | 5.9m/s | -47.3°C | 0% | 0hPa | 5.5V | 00:00:00 | 00:00:00 | 00:00:00 | |
| 9A1FER-3 | 2026-08-31 06:32:14 | 44.64449 | 20.73066 | 311° | 13km/h | 26262m | 7.9m/s | -48.7°C | 0% | 0hPa | 5.5V | 00:00:00 | 00:00:00 | 00:00:00 | |
| 9A1FER-3 | 2026-08-31 06:31:59 | 44.64416 | 20.73087 | 330° | 24km/h | 26165m | 8.6m/s | -49.5°C | 0% | 0hPa | 5.5V | 00:00:00 | 00:00:00 | 00:00:00 | |
| 9A1FER-3 | 2026-08-31 06:31:44 | 44.64331 | 20.73118 | 314° | 18km/h | 26071m | 5.2m/s | -50.2°C | 0% | 0hPa | 5.5V | 00:00:00 | 00:00:00 | 00:00:00 | |
| 9A1FER-3 | 2026-08-31 06:31:29 | 44.64284 | 20.73166 | 23° | 22km/h | 25975m | 6.5m/s | -49.7°C | 0% | 0hPa | 5.5V | 00:00:00 | 00:00:00 | 00:00:00 | |
| 9A1FER-3 | 2026-08-31 06:31:14 | 44.64248 | 20.73214 | 342° | 11km/h | 25881m | 5.9m/s | -49.6°C | 0% | 0hPa | 5.5V | 00:00:00 | 00:00:00 | 00:00:00 | |
| LZ4TU-5 | 2026-08-31 06:31:05 | 44.64244 | 20.73236 | 331° | 13km/h | 25822m | 7.4m/s | -50.5°C | 1.5% | 0hPa | 5.5V | 00:00:00 | 00:00:00 | 00:00:00 | |
| LZ4TU-5 | 2026-08-31 06:31:01 | 44.64232 | 20.73242 | 352° | 7km/h | 25799m | 2.7m/s | -50.8°C | 1.5% | 0hPa | 5.5V | 00:00:00 | 00:00:00 | 00:00:00 | |
| 9A1FER-3 | 2026-08-31 06:30:59 | 44.64229 | 20.73244 | 301° | 9km/h | 25783m | 9.2m/s | -50.1°C | 0% | 0hPa | 5.5V | 00:00:00 | 00:00:00 | 00:00:00 | |
| 9A1FER-3 | 2026-08-31 06:30:44 | 44.64201 | 20.73260 | 28° | 22km/h | 25688m | 4.7m/s | -50.4°C | 0% | 0hPa | 5.5V | 00:00:00 | 00:00:00 | 00:00:00 | |
| 9A1FER-3 | 2026-08-31 06:30:28 | 44.64122 | 20.73284 | 353° | 31km/h | 25584m | 5.6m/s | -50.8°C | 0% | 0hPa | 5.5V | 00:00:00 | 00:00:00 | 00:00:00 | |
| 9A1FER-3 | 2026-08-31 06:30:13 | 44.64021 | 20.73392 | 315° | 38km/h | 25485m | 5.4m/s | -51.2°C | 0% | 0hPa | 5.5V | 00:00:00 | 00:00:00 | 00:00:00 | |
| 9A1FER-3 | 2026-08-31 06:29:58 | 44.63941 | 20.73540 | 302° | 26km/h | 25385m | 7.9m/s | -50.8°C | 0% | 0hPa | 5.5V | 00:00:00 | 00:00:00 | 00:00:00 | |
| 9A1FER-3 | 2026-08-31 06:29:43 | 44.63911 | 20.73669 | 237° | 22km/h | 25284m | 6.4m/s | -50.6°C | 0% | 0hPa | 5.5V | 00:00:00 | 00:00:00 | 00:00:00 | |
| LZ4TU-5 | 2026-08-31 06:29:40 | 44.63910 | 20.73706 | 294° | 29km/h | 25254m | 8.6m/s | -51.1°C | 1.6% | 0hPa | 5.5V | 00:00:00 | 00:00:00 | 00:00:00 | |
| LZ4TU-5 | 2026-08-31 06:29:35 | 44.63902 | 20.73745 | 260° | 26km/h | 25230m | 3.8m/s | -51.1°C | 1.7% | 0hPa | 5.5V | 00:00:00 | 00:00:00 | 00:00:00 | |
| 9A1FER-3 | 2026-08-31 06:29:24 | 44.63909 | 20.73819 | 273° | 15km/h | 25154m | 7.2m/s | -50.1°C | 0% | 0hPa | 5.5V | 00:00:00 | 00:00:00 | 00:00:00 | |
| 9A1FER-3 | 2026-08-31 06:29:08 | 44.63921 | 20.73888 | 240° | 9km/h | 25048m | 7.0m/s | -49.8°C | 0% | 0hPa | 5.5V | 00:00:00 | 00:00:00 | 00:00:00 | |
| 9A1FER-3 | 2026-08-31 06:28:52 | 44.63914 | 20.73933 | 313° | 11km/h | 24940m | 6.2m/s | -50.0°C | 0% | 0hPa | 5.5V | 00:00:00 | 00:00:00 | 00:00:00 | |
| 9A1FER-3 | 2026-08-31 06:28:36 | 44.63907 | 20.73929 | 1° | 7km/h | 24832m | 5.1m/s | -50.5°C | 0% | 0hPa | 5.5V | 00:00:00 | 00:00:00 | 00:00:00 | |
| 9A1FER-3 | 2026-08-31 06:28:20 | 44.63879 | 20.73974 | 339° | 22km/h | 24725m | 6.0m/s | -50.4°C | 0% | 0hPa | 5.5V | 00:00:00 | 00:00:00 | 00:00:00 | |
| LZ4TU-5 | 2026-08-31 06:28:13 | 44.63849 | 20.73990 | 297° | 22km/h | 24678m | 7.3m/s | -51.0°C | 1.3% | 0hPa | 5.5V | 00:00:00 | 00:00:00 | 00:00:00 | |
| LZ4TU-5 | 2026-08-31 06:28:08 | 44.63829 | 20.74012 | 330° | 13km/h | 24646m | 5.5m/s | -51.0°C | 1.3% | 0hPa | 5.5V | 00:00:00 | 00:00:00 | 00:00:00 | |
| 9A1FER-3 | 2026-08-31 06:28:05 | 44.63819 | 20.74014 | 348° | 20km/h | 24628m | 5.4m/s | -50.4°C | 0% | 0hPa | 5.5V | 00:00:00 | 00:00:00 | 00:00:00 | |
| 9A1FER-3 | 2026-08-31 06:27:50 | 44.63754 | 20.74084 | 327° | 29km/h | 24530m | 6.0m/s | -51.1°C | 0% | 0hPa | 5.5V | 00:00:00 | 00:00:00 | 00:00:00 | |
| 9A1FER-3 | 2026-08-31 06:27:30 | 44.63665 | 20.74227 | 333° | 20km/h | 24401m | 5.4m/s | -51.2°C | 0% | 0hPa | 5.5V | 00:00:00 | 00:00:00 | 00:00:00 | |
| 9A1FER-3 | 2026-08-31 06:27:15 | 44.63656 | 20.74327 | 290° | 22km/h | 24307m | 5.6m/s | -51.7°C | 0% | 0hPa | 5.5V | 00:00:00 | 00:00:00 | 00:00:00 | |
| 9A1FER-3 | 2026-08-31 06:27:00 | 44.63682 | 20.74420 | 214° | 11km/h | 24217m | 5.2m/s | -51.8°C | 0% | 0hPa | 5.5V | 00:00:00 | 00:00:00 | 00:00:00 | |
| LZ4TU-5 | 2026-08-31 06:26:47 | 44.63693 | 20.74469 | 276° | 5km/h | 24136m | 6.2m/s | -52.6°C | 1.4% | 0hPa | 5.5V | 00:00:00 | 00:00:00 | 00:00:00 | |
| 9A1FER-3 | 2026-08-31 06:26:43 | 44.63688 | 20.74472 | 289° | 11km/h | 24111m | 5.1m/s | -51.8°C | 0% | 0hPa | 5.5V | 00:00:00 | 00:00:00 | 00:00:00 | |
| LZ4TU-5 | 2026-08-31 06:26:42 | 44.63688 | 20.74473 | 230° | 2km/h | 24104m | 6.5m/s | -52.5°C | 1.4% | 0hPa | 5.5V | 00:00:00 | 00:00:00 | 00:00:00 | |
| 9A1FER-3 | 2026-08-31 06:26:27 | 44.63698 | 20.74512 | 273° | 18km/h | 24009m | 8.1m/s | -52.0°C | 0% | 0hPa | 5.5V | 00:00:00 | 00:00:00 | 00:00:00 | |
| 9A1FER-3 | 2026-08-31 06:26:09 | 44.63692 | 20.74610 | 78° | 7km/h | 23899m | 7.5m/s | -52.1°C | 0% | 0hPa | 5.5V | 00:00:00 | 00:00:00 | 00:00:00 | |
| OE3JTB-15 | 2026-08-31 06:25:58 | 44.63683 | 20.74641 | 298° | 13km/h | 23833m | 4.8m/s | -52.2°C | 0% | 0hPa | 5.5V | 00:00:00 | 00:00:00 | 00:00:00 | |
| OE3JTB-15 | 2026-08-31 06:25:29 | 44.63628 | 20.74573 | 45° | 18km/h | 23653m | 6.6m/s | -52.3°C | 0% | 0hPa | 5.5V | 00:00:00 | 00:00:00 | 00:00:00 | |
| LZ4TU-5 | 2026-08-31 06:25:20 | 44.63610 | 20.74593 | 88° | 7km/h | 23595m | 6.6m/s | -52.9°C | 1.3% | 0hPa | 5.5V | 00:00:00 | 00:00:00 | 00:00:00 | |
| LZ4TU-5 | 2026-08-31 06:25:16 | 44.63599 | 20.74583 | 331° | 18km/h | 23572m | 6.0m/s | -52.8°C | 1.3% | 0hPa | 5.5V | 00:00:00 | 00:00:00 | 00:00:00 | |
| OE3JTB-15 | 2026-08-31 06:25:00 | 44.63562 | 20.74699 | 277° | 22km/h | 23465m | 5.5m/s | -52.1°C | 0% | 0hPa | 5.5V | 00:00:00 | 00:00:00 | 00:00:00 | |
| OE3JTB-15 | 2026-08-31 06:24:30 | 44.63567 | 20.74892 | 187° | 15km/h | 23272m | 5.2m/s | -52.0°C | 0% | 0hPa | 5.5V | 00:00:00 | 00:00:00 | 00:00:00 | |
| OE3JTB-15 | 2026-08-31 06:24:01 | 44.63594 | 20.74939 | 46° | 11km/h | 23080m | 7.6m/s | -51.5°C | 0% | 0hPa | 5.5V | 00:00:00 | 00:00:00 | 00:00:00 | |
| LZ4TU-5 | 2026-08-31 06:23:52 | 44.63606 | 20.74920 | 88° | 11km/h | 23018m | 9.0m/s | -52.9°C | 1.5% | 0hPa | 5.5V | 00:00:00 | 00:00:00 | 00:00:00 | |
| LZ4TU-5 | 2026-08-31 06:23:47 | 44.63603 | 20.74912 | 229° | 9km/h | 22986m | 7.0m/s | -53.0°C | 1.6% | 0hPa | 5.5V | 00:00:00 | 00:00:00 | 00:00:00 | |
| OE3JTB-15 | 2026-08-31 06:23:29 | 44.63594 | 20.74921 | 359° | 16km/h | 22868m | 7.5m/s | -51.8°C | 0% | 0hPa | 5.5V | 00:00:00 | 00:00:00 | 00:00:00 | |
| OM5KV | 2026-08-31 06:23:23 | 44.63576 | 20.74941 | 317° | 11km/h | 22832m | 4.4m/s | -52.7°C | 1.5% | 0hPa | 5.6V | 00:00:00 | 00:00:00 | 00:00:00 | |
| OM5KV | 2026-08-31 06:23:12 | 44.63552 | 20.74975 | 321° | 27km/h | 22760m | 4.3m/s | -52.6°C | 1.5% | 0hPa | 5.6V | 00:00:00 | 00:00:00 | 00:00:00 | |
| OM5KV | 2026-08-31 06:23:05 | 44.63538 | 20.74995 | 307° | 22km/h | 22714m | 7.6m/s | -52.5°C | 1.5% | 0hPa | 5.6V | 00:00:00 | 00:00:00 | 00:00:00 | |
| OM5KV | 2026-08-31 06:23:04 | 44.63534 | 20.75003 | 303° | 29km/h | 22707m | 6.8m/s | -52.4°C | 1.5% | 0hPa | 5.6V | 00:00:00 | 00:00:00 | 00:00:00 | |
| OM5KV | 2026-08-31 06:22:59 | 44.63505 | 20.75042 | 332° | 18km/h | 22679m | 6.6m/s | -52.6°C | 1.5% | 0hPa | 5.6V | 00:00:00 | 00:00:00 | 00:00:00 | |
| OM5KV | 2026-08-31 06:22:58 | 44.63502 | 20.75046 | 303° | 16km/h | 22673m | 6.3m/s | -52.6°C | 1.5% | 0hPa | 5.6V | 00:00:00 | 00:00:00 | 00:00:00 | |
| OM5KV | 2026-08-31 06:22:53 | 44.63493 | 20.75083 | 303° | 29km/h | 22641m | 5.3m/s | -52.6°C | 1.5% | 0hPa | 5.6V | 00:00:00 | 00:00:00 | 00:00:00 | |
| OM5KV | 2026-08-31 06:22:48 | 44.63471 | 20.75132 | 313° | 27km/h | 22608m | 5.6m/s | -52.3°C | 1.4% | 0hPa | 5.6V | 00:00:00 | 00:00:00 | 00:00:00 | |
| OM5KV | 2026-08-31 06:22:47 | 44.63467 | 20.75140 | 310° | 24km/h | 22602m | 5.5m/s | -52.2°C | 1.4% | 0hPa | 5.6V | 00:00:00 | 00:00:00 | 00:00:00 | |
| OM5KV | 2026-08-31 06:22:42 | 44.63462 | 20.75172 | 292° | 15km/h | 22572m | 7.7m/s | -52.2°C | 1.3% | 0hPa | 5.6V | 00:00:00 | 00:00:00 | 00:00:00 | |
| OM5KV | 2026-08-31 06:22:41 | 44.63460 | 20.75177 | 311° | 16km/h | 22567m | 5.3m/s | -52.2°C | 1.4% | 0hPa | 5.6V | 00:00:00 | 00:00:00 | 00:00:00 | |
| OM5KV | 2026-08-31 06:22:36 | 44.63449 | 20.75210 | 269° | 15km/h | 22534m | 6.0m/s | -52.0°C | 1.3% | 0hPa | 5.6V | 00:00:00 | 00:00:00 | 00:00:00 | |
| OM5KV | 2026-08-31 06:22:30 | 44.63442 | 20.75246 | 319° | 20km/h | 22497m | 6.6m/s | -52.0°C | 1.2% | 0hPa | 5.6V | 00:00:00 | 00:00:00 | 00:00:00 | |
| LZ4TU-5 | 2026-08-31 06:22:24 | 44.63425 | 20.75263 | 294° | 7km/h | 22462m | 7.2m/s | -52.3°C | 1.2% | 0hPa | 5.6V | 00:00:00 | 00:00:00 | 00:00:00 | |
| LZ4TU-5 | 2026-08-31 06:22:19 | 44.63423 | 20.75292 | 273° | 18km/h | 22432m | 6.5m/s | -52.4°C | 1.2% | 0hPa | 5.6V | 00:00:00 | 00:00:00 | 00:00:00 | |
| OM5KV | 2026-08-31 06:22:18 | 44.63424 | 20.75297 | 263° | 9km/h | 22424m | 7.7m/s | -52.2°C | 1.2% | 0hPa | 5.6V | 00:00:00 | 00:00:00 | 00:00:00 | |
| LZ4TU-5 | 2026-08-31 06:22:14 | 44.63421 | 20.75295 | 333° | 7km/h | 22401m | 6.3m/s | -52.4°C | 1.2% | 0hPa | 5.6V | 00:00:00 | 00:00:00 | 00:00:00 | |
| OM5KV | 2026-08-31 06:22:12 | 44.63419 | 20.75301 | 278° | 11km/h | 22389m | 6.3m/s | -52.5°C | 1.2% | 0hPa | 5.6V | 00:00:00 | 00:00:00 | 00:00:00 | |
| OM5KV | 2026-08-31 06:22:06 | 44.63425 | 20.75314 | 92° | 7km/h | 22350m | 8.0m/s | -52.7°C | 1.1% | 0hPa | 5.6V | 00:00:00 | 00:00:00 | 00:00:00 | |
| OM5KV | 2026-08-31 06:22:01 | 44.63421 | 20.75299 | 282° | 4km/h | 22321m | 6.0m/s | -53.0°C | 1.2% | 0hPa | 5.6V | 00:00:00 | 00:00:00 | 00:00:00 | |
| OM5KV | 2026-08-31 06:21:56 | 44.63433 | 20.75306 | 3° | 2km/h | 22291m | 6.4m/s | -53.3°C | 1.3% | 0hPa | 5.6V | 00:00:00 | 00:00:00 | 00:00:00 | |
| OM5KV | 2026-08-31 06:21:55 | 44.63432 | 20.75306 | 9° | 13km/h | 22285m | 5.7m/s | -53.4°C | 1.3% | 0hPa | 5.6V | 00:00:00 | 00:00:00 | 00:00:00 | |
| OM5KV | 2026-08-31 06:21:50 | 44.63409 | 20.75282 | 35° | 18km/h | 22254m | 5.2m/s | -53.4°C | 1.3% | 0hPa | 5.6V | 00:00:00 | 00:00:00 | 00:00:00 | |
| OM5KV | 2026-08-31 06:21:48 | 44.63404 | 20.75278 | 35° | 5km/h | 22243m | 6.3m/s | -53.4°C | 1.3% | 0hPa | 5.6V | 00:00:00 | 00:00:00 | 00:00:00 | |
| OM5KV | 2026-08-31 06:21:44 | 44.63405 | 20.75277 | 321° | 7km/h | 22217m | 6.6m/s | -53.7°C | 1.4% | 0hPa | 5.6V | 00:00:00 | 00:00:00 | 00:00:00 | |
| OM5KV | 2026-08-31 06:21:43 | 44.63403 | 20.75278 | 341° | 15km/h | 22210m | 6.1m/s | -53.8°C | 1.4% | 0hPa | 5.6V | 00:00:00 | 00:00:00 | 00:00:00 | |
| OM5KV | 2026-08-31 06:21:39 | 44.63385 | 20.75276 | 16° | 16km/h | 22185m | 6.5m/s | -53.8°C | 1.4% | 0hPa | 5.6V | 00:00:00 | 00:00:00 | 00:00:00 | |
| OM5KV | 2026-08-31 06:21:38 | 44.63382 | 20.75275 | 355° | 13km/h | 22179m | 5.4m/s | -53.9°C | 1.5% | 0hPa | 5.6V | 00:00:00 | 00:00:00 | 00:00:00 | |
| OM5KV | 2026-08-31 06:21:33 | 44.63382 | 20.75286 | 250° | 9km/h | 22148m | 6.1m/s | -53.8°C | 1.4% | 0hPa | 5.6V | 00:00:00 | 00:00:00 | 00:00:00 | |
| OM5KV | 2026-08-31 06:21:32 | 44.63382 | 20.75290 | 284° | 11km/h | 22142m | 5.1m/s | -53.7°C | 1.4% | 0hPa | 5.6V | 00:00:00 | 00:00:00 | 00:00:00 | |
| OM5KV | 2026-08-31 06:21:28 | 44.63373 | 20.75295 | 358° | 18km/h | 22118m | 6.1m/s | -53.7°C | 1.4% | 0hPa | 5.6V | 00:00:00 | 00:00:00 | 00:00:00 | |
| OM5KV | 2026-08-31 06:21:26 | 44.63363 | 20.75299 | 329° | 20km/h | 22106m | 5.2m/s | -53.8°C | 1.4% | 0hPa | 5.6V | 00:00:00 | 00:00:00 | 00:00:00 | |
| OM5KV | 2026-08-31 06:21:22 | 44.63360 | 20.75312 | 260° | 11km/h | 22078m | 7.1m/s | -53.8°C | 1.4% | 0hPa | 5.6V | 00:00:00 | 00:00:00 | 00:00:00 | |
| OM5KV | 2026-08-31 06:21:17 | 44.63356 | 20.75321 | 334° | 11km/h | 22048m | 6.5m/s | -53.7°C | 1.3% | 0hPa | 5.6V | 00:00:00 | 00:00:00 | 00:00:00 | |
| OM5KV | 2026-08-31 06:21:13 | 44.63346 | 20.75341 | 279° | 15km/h | 22023m | 6.3m/s | -53.7°C | 1.3% | 0hPa | 5.6V | 00:00:00 | 00:00:00 | 00:00:00 | |
| OM5KV | 2026-08-31 06:21:11 | 44.63346 | 20.75351 | 266° | 15km/h | 22011m | 7.4m/s | -53.8°C | 1.3% | 0hPa | 5.6V | 00:00:00 | 00:00:00 | 00:00:00 | |
| OM5KV | 2026-08-31 06:21:07 | 44.63345 | 20.75356 | 41° | 13km/h | 21987m | 5.9m/s | -53.8°C | 1.3% | 0hPa | 5.6V | 00:00:00 | 00:00:00 | 00:00:00 | |
| OM5KV | 2026-08-31 06:21:01 | 44.63329 | 20.75365 | 306° | 15km/h | 21950m | 4.9m/s | -53.9°C | 1.3% | 0hPa | 5.6V | 00:00:00 | 00:00:00 | 00:00:00 | |
| OM5KV | 2026-08-31 06:21:00 | 44.63328 | 20.75369 | 290° | 13km/h | 21943m | 7.1m/s | -53.9°C | 1.3% | 0hPa | 5.6V | 00:00:00 | 00:00:00 | 00:00:00 | |
| LZ4TU-5 | 2026-08-31 06:20:51 | 44.63319 | 20.75366 | 302° | 15km/h | 21889m | 8.3m/s | -54.3°C | 1.4% | 0hPa | 5.6V | 00:00:00 | 00:00:00 | 00:00:00 | |
| LZ4TU-5 | 2026-08-31 06:20:47 | 44.63306 | 20.75387 | 321° | 11km/h | 21864m | 6.9m/s | -54.4°C | 1.5% | 0hPa | 5.6V | 00:00:00 | 00:00:00 | 00:00:00 | |
| OM5KV | 2026-08-31 06:20:46 | 44.63304 | 20.75388 | 56° | 7km/h | 21858m | 5.3m/s | -54.5°C | 1.4% | 0hPa | 5.6V | 00:00:00 | 00:00:00 | 00:00:00 | |
| OM5KV | 2026-08-31 06:20:45 | 44.63303 | 20.75384 | 79° | 15km/h | 21853m | 5.3m/s | -54.5°C | 1.5% | 0hPa | 5.6V | 00:00:00 | 00:00:00 | 00:00:00 | |
| OM5KV | 2026-08-31 06:20:39 | 44.63284 | 20.75373 | 323° | 15km/h | 21814m | 6.4m/s | -54.6°C | 1.5% | 0hPa | 5.6V | 00:00:00 | 00:00:00 | 00:00:00 | |
| OM5KV | 2026-08-31 06:20:38 | 44.63282 | 20.75377 | 318° | 15km/h | 21808m | 6.7m/s | -54.7°C | 1.6% | 0hPa | 5.6V | 00:00:00 | 00:00:00 | 00:00:00 | |
| OM5KV | 2026-08-31 06:20:31 | 44.63270 | 20.75382 | 19° | 13km/h | 21765m | 5.6m/s | -54.7°C | 1.6% | 0hPa | 5.6V | 00:00:00 | 00:00:00 | 00:00:00 | |
| OM5KV | 2026-08-31 06:20:25 | 44.63257 | 20.75395 | 297° | 18km/h | 21729m | 6.9m/s | -54.5°C | 1.5% | 0hPa | 5.6V | 00:00:00 | 00:00:00 | 00:00:00 | |
| OE3JTB-15 | 2026-08-31 06:20:22 | 44.63249 | 20.75408 | 300° | 13km/h | 21711m | 6.2m/s | -53.8°C | 0% | 0hPa | 5.6V | 00:00:00 | 00:00:00 | 00:00:00 | |
| OM5KV | 2026-08-31 06:20:21 | 44.63249 | 20.75410 | 259° | 7km/h | 21704m | 6.5m/s | -54.6°C | 1.5% | 0hPa | 5.6V | 00:00:00 | 00:00:00 | 00:00:00 | |
| OM5KV | 2026-08-31 06:20:15 | 44.63246 | 20.75426 | 291° | 9km/h | 21668m | 3.7m/s | -54.4°C | 1.4% | 0hPa | 5.6V | 00:00:00 | 00:00:00 | 00:00:00 | |
| OM5KV | 2026-08-31 06:20:12 | 44.63242 | 20.75440 | 284° | 22km/h | 21649m | 4.2m/s | -54.4°C | 1.4% | 0hPa | 5.6V | 00:00:00 | 00:00:00 | 00:00:00 | |
| OM5KV | 2026-08-31 06:20:03 | 44.63249 | 20.75472 | 269° | 13km/h | 21589m | 7.9m/s | -54.1°C | 1.3% | 0hPa | 5.6V | 00:00:00 | 00:00:00 | 00:00:00 | |
| OM5KV | 2026-08-31 06:20:01 | 44.63249 | 20.75486 | 277° | 24km/h | 21576m | 5.1m/s | -54.1°C | 1.3% | 0hPa | 5.6V | 00:00:00 | 00:00:00 | 00:00:00 | |
| OE3JTB-15 | 2026-08-31 06:19:53 | 44.63249 | 20.75532 | 267° | 16km/h | 21525m | 5.6m/s | -53.6°C | 0% | 0hPa | 5.6V | 00:00:00 | 00:00:00 | 00:00:00 | |
| OM5KV | 2026-08-31 06:19:31 | 44.63286 | 20.75629 | 189° | 20km/h | 21388m | 4.9m/s | -54.5°C | 1.3% | 0hPa | 5.6V | 00:00:00 | 00:00:00 | 00:00:00 | |
| OM5KV | 2026-08-31 06:19:25 | 44.63284 | 20.75645 | 286° | 9km/h | 21352m | 5.8m/s | -54.8°C | 1.3% | 0hPa | 5.6V | 00:00:00 | 00:00:00 | 00:00:00 | |
| OE3JTB-15 | 2026-08-31 06:19:24 | 44.63284 | 20.75647 | 302° | 7km/h | 21344m | 8.4m/s | -54.1°C | 0% | 0hPa | 5.6V | 00:00:00 | 00:00:00 | 00:00:00 | |
| LZ4TU-5 | 2026-08-31 06:19:21 | 44.63285 | 20.75643 | 0° | 0km/h | 21327m | 7.2m/s | -55.0°C | 1.4% | 0hPa | 5.6V | 00:00:00 | 00:00:00 | 00:00:00 | |
| OM5KV | 2026-08-31 06:19:19 | 44.63284 | 20.75644 | 339° | 4km/h | 21313m | 7.4m/s | -55.0°C | 1.3% | 0hPa | 5.6V | 00:00:00 | 00:00:00 | 00:00:00 | |
| OE3JTB-15 | 2026-08-31 06:18:55 | 44.63291 | 20.75685 | 167° | 7km/h | 21169m | 5.1m/s | -54.8°C | 0% | 0hPa | 5.6V | 00:00:00 | 00:00:00 | 00:00:00 | |
| OE3JTB-15 | 2026-08-31 06:18:26 | 44.63319 | 20.75696 | 307° | 11km/h | 20992m | 6.3m/s | -55.0°C | 0% | 0hPa | 5.6V | 00:00:00 | 00:00:00 | 00:00:00 | |
| LZ4TU-5 | 2026-08-31 06:17:59 | 44.63323 | 20.75754 | 84° | 4km/h | 20831m | 4.9m/s | -55.9°C | 1.4% | 0hPa | 5.6V | 00:00:00 | 00:00:00 | 00:00:00 | |
| OE3JTB-15 | 2026-08-31 06:17:57 | 44.63323 | 20.75754 | 230° | 7km/h | 20819m | 5.7m/s | -55.0°C | 0% | 0hPa | 5.6V | 00:00:00 | 00:00:00 | 00:00:00 | |
| LZ4TU-5 | 2026-08-31 06:17:54 | 44.63333 | 20.75761 | 188° | 15km/h | 20801m | 5.6m/s | -55.8°C | 1.3% | 0hPa | 5.6V | 00:00:00 | 00:00:00 | 00:00:00 | |
| OE3JTB-15 | 2026-08-31 06:17:26 | 44.63330 | 20.75762 | 3° | 15km/h | 20637m | 4.9m/s | -55.1°C | 0% | 0hPa | 5.6V | 00:00:00 | 00:00:00 | 00:00:00 | |
| OE3JTB-15 | 2026-08-31 06:16:50 | 44.63291 | 20.75747 | 195° | 11km/h | 20420m | 6.9m/s | -54.9°C | 0% | 0hPa | 5.6V | 00:00:00 | 00:00:00 | 00:00:00 | |
| LZ4TU-5 | 2026-08-31 06:16:33 | 44.63273 | 20.75739 | 40° | 15km/h | 20318m | 6.1m/s | -55.7°C | 1.6% | 0hPa | 5.6V | 00:00:00 | 00:00:00 | 00:00:00 | |
| LZ4TU-5 | 2026-08-31 06:16:28 | 44.63267 | 20.75741 | 255° | 18km/h | 20286m | 6.9m/s | -55.6°C | 1.6% | 0hPa | 5.6V | 00:00:00 | 00:00:00 | 00:00:00 | |
| OE3JTB-15 | 2026-08-31 06:16:20 | 44.63258 | 20.75766 | 312° | 9km/h | 20238m | 4.2m/s | -54.7°C | 0% | 0hPa | 5.6V | 00:00:00 | 00:00:00 | 00:00:00 | |
| OE3JTB-15 | 2026-08-31 06:15:20 | 44.63236 | 20.75873 | 66° | 15km/h | 19874m | 7.2m/s | -55.0°C | 0% | 0hPa | 5.6V | 00:00:00 | 00:00:00 | 00:00:00 | |
| LZ4TU-5 | 2026-08-31 06:15:03 | 44.63206 | 20.75818 | 19° | 31km/h | 19774m | 6.4m/s | -56.2°C | 1.4% | 0hPa | 5.6V | 00:00:00 | 00:00:00 | 00:00:00 | |
| LZ4TU-5 | 2026-08-31 06:14:58 | 44.63187 | 20.75799 | 0° | 0km/h | 19746m | 6.4m/s | -56.1°C | 1.4% | 0hPa | 5.6V | 00:00:00 | 00:00:00 | 00:00:00 | |
| OE3JTB-15 | 2026-08-31 06:14:51 | 44.63182 | 20.75803 | 18° | 13km/h | 19704m | 6.1m/s | -55.4°C | 0% | 0hPa | 5.6V | 00:00:00 | 00:00:00 | 00:00:00 | |
| LZ4TU-5 | 2026-08-31 06:13:37 | 44.63262 | 20.75698 | 206° | 5km/h | 19270m | 6.2m/s | -57.7°C | 1.7% | 0hPa | 0V | 00:00:00 | 00:00:00 | 00:00:00 | |
| LZ4TU-5 | 2026-08-31 06:13:33 | 44.63262 | 20.75698 | 21° | 5km/h | 19246m | 6.5m/s | -57.5°C | 1.6% | 0hPa | 0V | 00:00:00 | 00:00:00 | 00:00:00 | |
| LZ4TU-5 | 2026-08-31 06:12:09 | 44.63252 | 20.75492 | 0° | 0km/h | 18762m | 4.7m/s | -56.9°C | 1.9% | 0hPa | 0V | 00:00:00 | 00:00:00 | 00:00:00 | |
| LZ4TU-5 | 2026-08-31 06:12:05 | 44.63258 | 20.75487 | 142° | 13km/h | 18738m | 5.2m/s | -56.9°C | 1.9% | 0hPa | 0V | 00:00:00 | 00:00:00 | 00:00:00 | |
| LZ4TU-5 | 2026-08-31 06:10:39 | 44.63250 | 20.75357 | 120° | 22km/h | 18244m | 6.6m/s | -57.5°C | 1.7% | 0hPa | 0V | 00:00:00 | 00:00:00 | 00:00:00 | |
| LZ4TU-5 | 2026-08-31 06:10:34 | 44.63260 | 20.75330 | 119° | 13km/h | 18214m | 6.7m/s | -58.0°C | 1.8% | 0hPa | 0V | 00:00:00 | 00:00:00 | 00:00:00 | |
| LZ4TU-5 | 2026-08-31 06:09:10 | 44.63216 | 20.74627 | 57° | 24km/h | 17738m | 6.4m/s | -58.9°C | 2.4% | 0hPa | 0V | 00:00:00 | 00:00:00 | 00:00:00 | |
| LZ4TU-5 | 2026-08-31 06:09:06 | 44.63206 | 20.74603 | 70° | 24km/h | 17717m | 5.2m/s | -58.8°C | 2.4% | 0hPa | 0V | 00:00:00 | 00:00:00 | 00:00:00 | |
| LZ4TU-5 | 2026-08-31 06:07:43 | 44.63105 | 20.74196 | 119° | 26km/h | 17247m | 5.4m/s | -59.2°C | 2.3% | 0hPa | 0V | 00:00:00 | 00:00:00 | 00:00:00 | |
| LZ4TU-5 | 2026-08-31 06:07:39 | 44.63118 | 20.74162 | 103° | 29km/h | 17226m | 5.8m/s | -59.8°C | 2.4% | 0hPa | 0V | 00:00:00 | 00:00:00 | 00:00:00 | |
| LZ4TU-5 | 2026-08-31 06:07:35 | 44.63123 | 20.74124 | 98° | 22km/h | 17204m | 5.6m/s | -60.1°C | 2.4% | 0hPa | 0V | 00:00:00 | 00:00:00 | 00:00:00 | |
| LZ4TU-5 | 2026-08-31 06:07:30 | 44.63127 | 20.74076 | 105° | 33km/h | 17177m | 4.4m/s | -60.5°C | 2.6% | 0hPa | 0V | 00:00:00 | 00:00:00 | 00:00:00 | |
| LZ4TU-5 | 2026-08-31 06:06:07 | 44.63262 | 20.73275 | 107° | 40km/h | 16701m | 5.8m/s | -60.1°C | 3.1% | 0hPa | 0V | 00:00:00 | 00:00:00 | 00:00:00 | |
| LZ4TU-5 | 2026-08-31 06:06:03 | 44.63268 | 20.73215 | 101° | 42km/h | 16677m | 6.7m/s | -60.1°C | 2.5% | 0hPa | 0V | 00:00:00 | 00:00:00 | 00:00:00 | |
| LZ4TU-5 | 2026-08-31 06:04:40 | 44.63368 | 20.72083 | 109° | 27km/h | 16194m | 5.1m/s | -58.9°C | 3.3% | 0hPa | 0V | 00:00:00 | 00:00:00 | 00:00:00 | |
| LZ4TU-5 | 2026-08-31 06:04:36 | 44.63384 | 20.72046 | 123° | 35km/h | 16172m | 5.8m/s | -58.8°C | 3.3% | 0hPa | 0V | 00:00:00 | 00:00:00 | 00:00:00 | |
| LZ4TU-5 | 2026-08-31 06:03:11 | 44.63453 | 20.70976 | 76° | 33km/h | 15745m | 5.7m/s | -59.3°C | 4.3% | 0hPa | 0V | 00:00:00 | 00:00:00 | 00:00:00 | |
| LZ4TU-5 | 2026-08-31 06:01:41 | 44.63562 | 20.69903 | 96° | 46km/h | 15268m | 5.2m/s | -59.4°C | 6.0% | 0hPa | 0V | 00:00:00 | 00:00:00 | 00:00:00 | |
| LZ4TU-5 | 2026-08-31 06:01:36 | 44.63569 | 20.69820 | 109° | 38km/h | 15242m | 5.3m/s | -59.1°C | 5.9% | 0hPa | 0V | 00:00:00 | 00:00:00 | 00:00:00 | |
| LZ4TU-5 | 2026-08-31 05:59:59 | 44.64044 | 20.68341 | 112° | 53km/h | 14708m | 4.9m/s | -58.7°C | 6.6% | 0hPa | 0V | 00:00:00 | 00:00:00 | 00:00:00 | |
| LZ4TU-5 | 2026-08-31 05:58:31 | 44.64423 | 20.66846 | 122° | 60km/h | 14241m | 4.9m/s | -58.1°C | 11.5% | 0hPa | 0V | 00:00:00 | 00:00:00 | 00:00:00 | |
| LZ4TU-5 | 2026-08-31 05:58:27 | 44.64454 | 20.66777 | 119° | 57km/h | 14221m | 4.7m/s | -58.2°C | 11.8% | 0hPa | 0V | 00:00:00 | 00:00:00 | 00:00:00 | |
| LZ4TU-5 | 2026-08-31 05:58:22 | 44.64485 | 20.66687 | 118° | 57km/h | 14191m | 6.3m/s | -58.2°C | 12.1% | 0hPa | 0V | 00:00:00 | 00:00:00 | 00:00:00 | |
| LZ4TU-5 | 2026-08-31 05:56:59 | 44.65075 | 20.65172 | 123° | 64km/h | 13773m | 5.7m/s | -61.0°C | 17.6% | 0hPa | 0V | 00:00:00 | 00:00:00 | 00:00:00 | |
| LZ4TU-5 | 2026-08-31 05:56:55 | 44.65105 | 20.65089 | 121° | 69km/h | 13749m | 6.6m/s | -61.1°C | 17.9% | 0hPa | 0V | 00:00:00 | 00:00:00 | 00:00:00 | |
| LZ4TU-5 | 2026-08-31 05:55:31 | 44.66154 | 20.63972 | 156° | 77km/h | 13241m | 5.0m/s | -60.5°C | 23.8% | 0hPa | 0V | 00:00:00 | 00:00:00 | 00:00:00 | |
| LZ4TU-5 | 2026-08-31 05:55:26 | 44.66236 | 20.63905 | 149° | 71km/h | 13216m | 5.3m/s | -60.2°C | 24.0% | 0hPa | 0V | 00:00:00 | 00:00:00 | 00:00:00 | |
| LZ4TU-5 | 2026-08-31 05:54:02 | 44.67633 | 20.62686 | 140° | 93km/h | 12684m | 4.8m/s | -58.3°C | 35.5% | 0hPa | 0V | 00:00:00 | 00:00:00 | 00:00:00 | |
| LZ4TU-5 | 2026-08-31 05:53:58 | 44.67699 | 20.62596 | 138° | 88km/h | 12663m | 6.7m/s | -58.3°C | 35.8% | 0hPa | 0V | 00:00:00 | 00:00:00 | 00:00:00 | |
| LZ4TU-5 | 2026-08-31 05:52:36 | 44.68954 | 20.61076 | 146° | 80km/h | 12212m | 4.8m/s | -56.6°C | 42.2% | 0hPa | 0V | 00:00:00 | 00:00:00 | 00:00:00 | |
| LZ4TU-5 | 2026-08-31 05:52:31 | 44.69030 | 20.60977 | 139° | 78km/h | 12187m | 4.6m/s | -56.4°C | 42.0% | 0hPa | 0V | 00:00:00 | 00:00:00 | 00:00:00 | |
| LZ4TU-5 | 2026-08-31 05:51:01 | 44.70583 | 20.59426 | 147° | 111km/h | 11658m | 5.3m/s | -51.9°C | 34.6% | 0hPa | 0V | 00:00:00 | 00:00:00 | 00:00:00 | |
| LZ4TU-5 | 2026-08-31 05:50:56 | 44.70685 | 20.59327 | 145° | 75km/h | 11628m | 7.5m/s | -51.6°C | 33.4% | 0hPa | 0V | 00:00:00 | 00:00:00 | 00:00:00 | |
| LZ4TU-5 | 2026-08-31 05:49:34 | 44.71915 | 20.58042 | 139° | 68km/h | 11137m | 4.3m/s | -47.7°C | 28.0% | 0hPa | 0V | 00:00:00 | 00:00:00 | 00:00:00 | |
| LZ4TU-5 | 2026-08-31 05:49:29 | 44.71981 | 20.57965 | 141° | 73km/h | 11113m | 4.4m/s | -47.6°C | 28.1% | 0hPa | 0V | 00:00:00 | 00:00:00 | 00:00:00 | |
| LZ4TU-5 | 2026-08-31 05:48:06 | 44.73058 | 20.56730 | 146° | 77km/h | 10668m | 6.5m/s | -44.7°C | 28.2% | 0hPa | 0V | 00:00:00 | 00:00:00 | 00:00:00 | |
| LZ4TU-5 | 2026-08-31 05:48:02 | 44.73118 | 20.56656 | 133° | 71km/h | 10649m | 5.1m/s | -44.4°C | 28.2% | 0hPa | 0V | 00:00:00 | 00:00:00 | 00:00:00 | |
| LZ4TU-5 | 2026-08-31 05:46:31 | 44.74072 | 20.55293 | 130° | 57km/h | 10150m | 5.6m/s | -40.7°C | 25.8% | 0hPa | 0V | 00:00:00 | 00:00:00 | 00:00:00 | |
| LZ4TU-5 | 2026-08-31 05:46:27 | 44.74102 | 20.55232 | 122° | 49km/h | 10130m | 4.5m/s | -40.5°C | 25.4% | 0hPa | 0V | 00:00:00 | 00:00:00 | 00:00:00 | |
| LZ4TU-5 | 2026-08-31 05:44:57 | 44.74812 | 20.53781 | 122° | 66km/h | 9632m | 8.7m/s | -36.0°C | 18.2% | 0hPa | 0V | 00:00:00 | 00:00:00 | 00:00:00 | |
| LZ4TU-5 | 2026-08-31 05:44:52 | 44.74857 | 20.53698 | 129° | 38km/h | 9601m | 6.6m/s | -35.8°C | 17.6% | 0hPa | 0V | 00:00:00 | 00:00:00 | 00:00:00 | |
| LZ4TU-5 | 2026-08-31 05:43:30 | 44.75353 | 20.52408 | 125° | 60km/h | 9147m | 6.1m/s | -31.9°C | 11.6% | 0hPa | 0V | 00:00:00 | 00:00:00 | 00:00:00 | |
| LZ4TU-5 | 2026-08-31 05:43:26 | 44.75390 | 20.52345 | 126° | 42km/h | 9129m | 5.0m/s | -31.7°C | 11.8% | 0hPa | 0V | 00:00:00 | 00:00:00 | 00:00:00 | |
| LZ4TU-5 | 2026-08-31 05:42:03 | 44.75690 | 20.51219 | 113° | 40km/h | 8663m | 5.4m/s | -27.8°C | 13.9% | 0hPa | 0V | 00:00:00 | 00:00:00 | 00:00:00 | |
| LZ4TU-5 | 2026-08-31 05:41:58 | 44.75713 | 20.51145 | 91° | 29km/h | 8637m | 5.7m/s | -27.7°C | 14.2% | 0hPa | 0V | 00:00:00 | 00:00:00 | 00:00:00 | |
| LZ4TU-5 | 2026-08-31 05:40:35 | 44.75956 | 20.50404 | 145° | 44km/h | 8184m | 2.8m/s | -25.6°C | 17.3% | 0hPa | 0V | 00:00:00 | 00:00:00 | 00:00:00 | |
| LZ4TU-5 | 2026-08-31 05:40:30 | 44.75975 | 20.50329 | 86° | 44km/h | 8156m | 4.8m/s | -25.3°C | 17.2% | 0hPa | 0V | 00:00:00 | 00:00:00 | 00:00:00 | |
| LZ4TU-5 | 2026-08-31 05:39:07 | 44.76325 | 20.49323 | 105° | 49km/h | 7697m | 5.9m/s | -21.2°C | 18.6% | 0hPa | 0V | 00:00:00 | 00:00:00 | 00:00:00 | |
| LZ4TU-5 | 2026-08-31 05:39:03 | 44.76328 | 20.49279 | 90° | 24km/h | 7674m | 5.9m/s | -21.0°C | 18.4% | 0hPa | 0V | 00:00:00 | 00:00:00 | 00:00:00 | |
| LZ4TU-5 | 2026-08-31 05:38:59 | 44.76338 | 20.49238 | 134° | 40km/h | 7649m | 6.9m/s | -20.8°C | 18.0% | 0hPa | 0V | 00:00:00 | 00:00:00 | 00:00:00 | |
| LZ4TU-5 | 2026-08-31 05:38:54 | 44.76385 | 20.49171 | 116° | 60km/h | 7628m | 5.2m/s | -20.7°C | 17.8% | 0hPa | 0V | 00:00:00 | 00:00:00 | 00:00:00 | |
| LZ4TU-5 | 2026-08-31 05:37:33 | 44.77003 | 20.48454 | 143° | 49km/h | 7152m | 4.5m/s | -17.2°C | 22.6% | 0hPa | 0V | 00:00:00 | 00:00:00 | 00:00:00 | |
| LZ4TU-5 | 2026-08-31 05:37:28 | 44.77025 | 20.48419 | 133° | 40km/h | 7120m | 6.2m/s | -16.8°C | 21.4% | 0hPa | 0V | 00:00:00 | 00:00:00 | 00:00:00 | |
| LZ4TU-5 | 2026-08-31 05:37:22 | 44.77086 | 20.48345 | 156° | 31km/h | 7076m | 8.2m/s | -16.5°C | 19.5% | 0hPa | 0V | 00:00:00 | 00:00:00 | 00:00:00 | |
| LZ4TU-5 | 2026-08-31 05:36:06 | 44.77573 | 20.47792 | 139° | 35km/h | 6653m | 6.0m/s | -13.2°C | 8.1% | 0hPa | 0V | 00:00:00 | 00:00:00 | 00:00:00 | |
| LZ4TU-5 | 2026-08-31 05:36:01 | 44.77583 | 20.47753 | 120° | 13km/h | 6625m | 4.1m/s | -13.0°C | 8.1% | 0hPa | 0V | 00:00:00 | 00:00:00 | 00:00:00 | |
| LZ4TU-5 | 2026-08-31 05:34:45 | 44.77880 | 20.47123 | 161° | 20km/h | 6203m | 4.4m/s | -10.1°C | 8.9% | 0hPa | 0V | 00:00:00 | 00:00:00 | 00:00:00 | |
| LZ4TU-5 | 2026-08-31 05:34:40 | 44.77873 | 20.47080 | 92° | 37km/h | 6173m | 5.6m/s | -9.8°C | 8.9% | 0hPa | 0V | 00:00:00 | 00:00:00 | 00:00:00 | |
| LZ4TU-5 | 2026-08-31 05:33:22 | 44.77983 | 20.46408 | 148° | 33km/h | 5732m | 4.3m/s | -6.9°C | 7.1% | 0hPa | 0V | 00:00:00 | 00:00:00 | 00:00:00 | |
| LZ4TU-5 | 2026-08-31 05:33:17 | 44.78009 | 20.46386 | 90° | 20km/h | 5704m | 6.8m/s | -6.8°C | 7.3% | 0hPa | 0V | 00:00:00 | 00:00:00 | 00:00:00 | |
| LZ4TU-5 | 2026-08-31 05:32:05 | 44.78016 | 20.45782 | 93° | 18km/h | 5288m | 4.8m/s | -5.8°C | 19.6% | 0hPa | 0V | 00:00:00 | 00:00:00 | 00:00:00 | |
| LZ4TU-5 | 2026-08-31 05:32:00 | 44.78014 | 20.45717 | 102° | 49km/h | 5255m | 4.4m/s | -5.6°C | 20.0% | 0hPa | 0V | 00:00:00 | 00:00:00 | 00:00:00 | |
| LZ4TU-5 | 2026-08-31 05:31:56 | 44.78027 | 20.45648 | 107° | 40km/h | 5238m | 5.2m/s | -5.5°C | 20.7% | 0hPa | 0V | 00:00:00 | 00:00:00 | 00:00:00 | |
| LZ4TU-5 | 2026-08-31 05:31:51 | 44.78038 | 20.45623 | 135° | 18km/h | 5209m | 6.6m/s | -5.5°C | 22.6% | 0hPa | 0V | 00:00:00 | 00:00:00 | 00:00:00 | |
| LZ4TU-5 | 2026-08-31 05:31:47 | 44.78047 | 20.45566 | 83° | 49km/h | 5186m | 6.2m/s | -5.3°C | 23.0% | 0hPa | 0V | 00:00:00 | 00:00:00 | 00:00:00 | |
| LZ4TU-5 | 2026-08-31 05:31:42 | 44.78029 | 20.45528 | 0° | 0km/h | 5157m | 4.8m/s | -5.4°C | 24.7% | 0hPa | 0V | 00:00:00 | 00:00:00 | 00:00:00 | |
| LZ4TU-5 | 2026-08-31 05:30:32 | 44.77931 | 20.44852 | 35° | 38km/h | 4765m | 4.4m/s | -3.2°C | 39.5% | 0hPa | 0V | 00:00:00 | 00:00:00 | 00:00:00 | |
| LZ4TU-5 | 2026-08-31 05:30:27 | 44.77917 | 20.44797 | 135° | 24km/h | 4738m | 6.8m/s | -3.0°C | 38.2% | 0hPa | 0V | 00:00:00 | 00:00:00 | 00:00:00 | |
| LZ4TU-5 | 2026-08-31 05:29:17 | 44.77872 | 20.44436 | 98° | 24km/h | 4350m | 4.6m/s | -0.8°C | 37.4% | 0hPa | 0V | 00:00:00 | 00:00:00 | 00:00:00 | |
| LZ4TU-5 | 2026-08-31 05:29:12 | 44.77859 | 20.44411 | 57° | 29km/h | 4318m | 7.5m/s | -1.1°C | 50.7% | 0hPa | 0V | 00:00:00 | 00:00:00 | 00:00:00 | |
| LZ4TU-5 | 2026-08-31 05:28:02 | 44.77797 | 20.43806 | 118° | 37km/h | 3947m | 4.5m/s | 1.4°C | 69.9% | 0hPa | 0V | 00:00:00 | 00:00:00 | 00:00:00 | |
| LZ4TU-5 | 2026-08-31 05:27:57 | 44.77796 | 20.43779 | 48° | 33km/h | 3923m | 5.1m/s | 1.5°C | 71.2% | 0hPa | 0V | 00:00:00 | 00:00:00 | 00:00:00 | |
| LZ4TU-5 | 2026-08-31 05:26:38 | 44.77762 | 20.43231 | 98° | 16km/h | 3510m | 5.7m/s | 4.1°C | 74.0% | 0hPa | 0V | 00:00:00 | 00:00:00 | 00:00:00 | |
| LZ4TU-5 | 2026-08-31 05:26:33 | 44.77767 | 20.43196 | 134° | 11km/h | 3481m | 5.2m/s | 4.2°C | 75.3% | 0hPa | 0V | 00:00:00 | 00:00:00 | 00:00:00 | |
| LZ4TU-5 | 2026-08-31 05:26:24 | 44.77770 | 20.43140 | 0° | 0km/h | 3431m | 6.0m/s | 4.5°C | 75.9% | 0hPa | 0V | 00:00:00 | 00:00:00 | 00:00:00 |